Time;durP1;ratioP1;P1;durP2;ratioP2;P2;SDS_P1;SDS_P2;PMS_P1;PMS_P2;Temp;Humidity;BMP_temperature;BMP_pressure;BME280_temperature;BME280_humidity;BME280_pressure;Samples;Min_cycle;Max_cycle;Signal;HPM_P1;HPM_P2
2023/06/06 00:02:09;;;;;;;15.63;10.67;;;;;;;;;;6343430;28;20206;-52
2023/06/06 00:05:13;;;;;;;16.00;11.30;;;;;;;;;;6342951;27;20188;-53
2023/06/06 00:08:14;;;;;;;14.87;10.97;;;;;;;;;;6331322;28;20188;-51
2023/06/06 00:11:16;;;;;;;21.67;12.50;;;;;;;;;;6333485;28;20189;-53
2023/06/06 00:14:18;;;;;;;12.67;10.13;;;;;;;;;;6336271;28;20221;-53
2023/06/06 00:17:20;;;;;;;20.07;11.57;;;;;;;;;;6324304;28;20201;-52
2023/06/06 00:20:22;;;;;;;15.73;10.40;;;;;;;;;;6331415;27;20224;-49
2023/06/06 00:23:23;;;;;;;14.93;9.77;;;;;;;;;;6332694;28;20207;-52
2023/06/06 00:26:24;;;;;;;17.27;11.43;;;;;;;;;;6329105;28;20192;-53
2023/06/06 00:29:25;;;;;;;16.20;9.63;;;;;;;;;;6319399;28;20220;-50
2023/06/06 00:32:26;;;;;;;16.33;10.67;;;;;;;;;;6333908;28;20222;-50
2023/06/06 00:35:28;;;;;;;18.37;11.53;;;;;;;;;;6341366;27;20324;-52
2023/06/06 00:38:29;;;;;;;16.70;12.20;;;;;;;;;;6329245;28;20196;-48
2023/06/06 00:41:30;;;;;;;17.53;12.27;;;;;;;;;;6336654;27;20241;-54
2023/06/06 00:44:31;;;;;;;16.20;12.23;;;;;;;;;;6346105;28;20214;-50
2023/06/06 00:47:32;;;;;;;15.67;11.33;;;;;;;;;;6351740;28;20269;-53
2023/06/06 00:50:34;;;;;;;16.67;12.17;;;;;;;;;;6354087;27;20182;-51
2023/06/06 00:53:36;;;;;;;21.20;11.80;;;;;;;;;;6328445;27;20282;-47
2023/06/06 00:56:37;;;;;;;16.97;11.67;;;;;;;;;;6338471;28;20192;-54
2023/06/06 00:59:39;;;;;;;22.63;12.40;;;;;;;;;;6337003;27;20188;-54
2023/06/06 01:02:43;;;;;;;18.53;13.33;;;;;;;;;;6337804;28;20212;-50
2023/06/06 01:05:45;;;;;;;16.33;12.37;;;;;;;;;;6336018;27;20191;-52
2023/06/06 01:08:46;;;;;;;18.60;11.00;;;;;;;;;;6321071;27;20188;-50
2023/06/06 01:12:09;;;;;;;16.87;11.63;;;;;;;;;;6328707;27;20191;-53
2023/06/06 01:15:14;;;;;;;18.20;10.00;;;;;;;;;;6336268;28;20185;-53
2023/06/06 01:18:17;;;;;;;20.53;12.60;;;;;;;;;;6348809;27;20207;-53
2023/06/06 01:21:19;;;;;;;22.90;13.03;;;;;;;;;;6353579;27;20187;-53
2023/06/06 01:24:21;;;;;;;20.73;13.23;;;;;;;;;;6361849;27;20221;-54
2023/06/06 01:27:23;;;;;;;17.27;12.33;;;;;;;;;;6345748;27;20270;-53
2023/06/06 01:30:26;;;;;;;19.60;11.37;;;;;;;;;;6341521;28;20263;-53
2023/06/06 01:33:32;;;;;;;20.83;11.80;;;;;;;;;;6347067;28;20214;-53
2023/06/06 01:36:48;;;;;;;18.30;12.30;;;;;;;;;;6334937;28;20197;-53
2023/06/06 01:39:50;;;;;;;17.83;12.20;;;;;;;;;;6340171;27;20222;-53
2023/06/06 01:42:52;;;;;;;21.07;13.10;;;;;;;;;;6343119;27;20217;-52
2023/06/06 01:45:54;;;;;;;17.50;11.30;;;;;;;;;;6339716;28;20188;-51
2023/06/06 01:48:56;;;;;;;17.43;12.40;;;;;;;;;;6344827;27;20184;-52
2023/06/06 01:51:57;;;;;;;22.47;10.57;;;;;;;;;;6329824;27;20195;-49
2023/06/06 01:54:58;;;;;;;16.07;11.73;;;;;;;;;;6319572;28;20199;-51
2023/06/06 01:58:00;;;;;;;19.67;12.70;;;;;;;;;;6325991;27;20205;-53
2023/06/06 02:01:02;;;;;;;18.27;11.70;;;;;;;;;;6323460;28;20205;-52
2023/06/06 02:04:03;;;;;;;14.47;10.87;;;;;;;;;;6326098;28;20236;-53
2023/06/06 02:07:05;;;;;;;13.80;10.80;;;;;;;;;;6325738;28;20188;-52
2023/06/06 02:10:06;;;;;;;17.80;11.33;;;;;;;;;;6319469;27;20188;-53
2023/06/06 02:13:07;;;;;;;15.70;11.90;;;;;;;;;;6325133;28;20217;-52
2023/06/06 02:16:08;;;;;;;15.33;10.47;;;;;;;;;;6334281;27;20278;-50
2023/06/06 02:19:09;;;;;;;15.80;10.93;;;;;;;;;;6323924;28;20274;-51
2023/06/06 02:22:10;;;;;;;14.47;9.33;;;;;;;;;;6330561;27;20200;-52
2023/06/06 02:25:13;;;;;;;14.50;10.87;;;;;;;;;;6329058;28;20189;-54
2023/06/06 02:28:14;;;;;;;10.43;8.70;;;;;;;;;;6332905;28;20196;-51
2023/06/06 02:31:16;;;;;;;15.50;10.10;;;;;;;;;;6344330;28;20308;-51
2023/06/06 02:34:17;;;;;;;11.87;9.90;;;;;;;;;;6335460;27;20194;-52
2023/06/06 02:37:18;;;;;;;12.83;10.43;;;;;;;;;;6344048;27;20223;-52
2023/06/06 02:40:20;;;;;;;15.37;10.90;;;;;;;;;;6337784;27;20199;-51
2023/06/06 02:43:21;;;;;;;16.87;10.27;;;;;;;;;;6346248;28;20261;-53
2023/06/06 02:46:22;;;;;;;14.27;10.03;;;;;;;;;;6331459;28;20192;-51
2023/06/06 02:49:24;;;;;;;13.77;10.13;;;;;;;;;;6346010;27;20287;-54
2023/06/06 02:52:25;;;;;;;12.83;10.50;;;;;;;;;;6358622;27;20195;-53
2023/06/06 02:55:26;;;;;;;12.10;9.63;;;;;;;;;;6336009;27;20183;-53
2023/06/06 02:58:28;;;;;;;13.00;9.97;;;;;;;;;;6326096;28;20197;-50
2023/06/06 03:01:30;;;;;;;12.73;10.60;;;;;;;;;;6341638;28;20190;-49
2023/06/06 03:04:31;;;;;;;15.23;10.50;;;;;;;;;;6339932;27;20215;-53
2023/06/06 03:07:32;;;;;;;13.13;9.80;;;;;;;;;;6334049;28;20205;-51
2023/06/06 03:10:34;;;;;;;11.50;9.47;;;;;;;;;;6329485;27;20193;-47
2023/06/06 03:13:35;;;;;;;11.17;9.97;;;;;;;;;;6317846;28;20192;-53
2023/06/06 03:16:36;;;;;;;10.63;9.50;;;;;;;;;;6335591;28;20275;-53
2023/06/06 03:19:37;;;;;;;10.37;9.37;;;;;;;;;;6336032;28;20182;-52
2023/06/06 03:22:38;;;;;;;15.63;10.53;;;;;;;;;;6321764;28;20219;-48
2023/06/06 03:25:43;;;;;;;10.10;9.13;;;;;;;;;;6337763;28;20224;-52
2023/06/06 03:28:45;;;;;;;13.43;10.07;;;;;;;;;;6320351;28;20188;-51
2023/06/06 03:31:48;;;;;;;14.83;9.77;;;;;;;;;;6334070;28;20284;-48
2023/06/06 03:34:51;;;;;;;14.77;9.23;;;;;;;;;;6331359;28;20230;-50
2023/06/06 03:37:55;;;;;;;12.17;10.00;;;;;;;;;;6320391;28;20190;-54
2023/06/06 03:40:56;;;;;;;13.80;10.60;;;;;;;;;;6320158;28;20196;-50
2023/06/06 03:43:57;;;;;;;12.37;9.20;;;;;;;;;;6332616;28;20212;-52
2023/06/06 03:46:59;;;;;;;8.87;7.87;;;;;;;;;;6325355;27;20199;-53
2023/06/06 03:50:00;;;;;;;9.33;8.33;;;;;;;;;;6332966;28;20188;-49
2023/06/06 03:53:01;;;;;;;11.27;9.77;;;;;;;;;;6341356;27;20199;-53
2023/06/06 03:56:02;;;;;;;13.90;10.10;;;;;;;;;;6318345;28;20197;-51
2023/06/06 03:59:05;;;;;;;10.33;9.23;;;;;;;;;;6330484;28;20332;-53
2023/06/06 04:02:06;;;;;;;13.00;9.97;;;;;;;;;;6330431;28;20189;-51
2023/06/06 04:05:08;;;;;;;14.13;11.27;;;;;;;;;;6320047;28;20231;-51
2023/06/06 04:08:09;;;;;;;13.63;10.33;;;;;;;;;;6320574;28;20279;-51
2023/06/06 04:11:10;;;;;;;12.07;10.73;;;;;;;;;;6314632;28;20188;-50
2023/06/06 04:14:13;;;;;;;14.57;11.03;;;;;;;;;;6312464;28;20199;-48
2023/06/06 04:17:14;;;;;;;13.53;10.57;;;;;;;;;;6337252;28;20187;-51
2023/06/06 04:20:15;;;;;;;12.83;9.83;;;;;;;;;;6329982;28;20199;-51
2023/06/06 04:23:16;;;;;;;12.40;10.53;;;;;;;;;;6320742;28;20215;-50
2023/06/06 04:26:24;;;;;;;10.30;9.23;;;;;;;;;;6317863;28;20217;-51
2023/06/06 04:29:26;;;;;;;11.13;9.50;;;;;;;;;;6318941;28;20253;-51
2023/06/06 04:32:27;;;;;;;11.50;9.43;;;;;;;;;;6314455;28;20208;-51
2023/06/06 04:35:28;;;;;;;11.27;9.87;;;;;;;;;;6330171;27;20198;-51
2023/06/06 04:38:29;;;;;;;11.53;9.97;;;;;;;;;;6339237;27;20211;-51
2023/06/06 04:41:30;;;;;;;12.03;9.80;;;;;;;;;;6346675;27;20191;-54
2023/06/06 04:44:32;;;;;;;15.00;10.77;;;;;;;;;;6328654;27;20217;-53
2023/06/06 04:47:40;;;;;;;11.23;9.40;;;;;;;;;;6343308;27;20213;-52
2023/06/06 04:50:42;;;;;;;11.87;8.87;;;;;;;;;;6352079;27;20191;-53
2023/06/06 04:53:44;;;;;;;13.03;10.90;;;;;;;;;;6346584;27;20184;-53
2023/06/06 04:56:47;;;;;;;13.00;10.73;;;;;;;;;;6337954;27;20197;-52
2023/06/06 04:59:52;;;;;;;13.50;11.20;;;;;;;;;;6335055;27;20242;-51
2023/06/06 05:02:53;;;;;;;11.83;10.63;;;;;;;;;;6356412;27;20222;-53
2023/06/06 05:05:54;;;;;;;10.50;9.40;;;;;;;;;;6338520;27;20194;-54
2023/06/06 05:08:55;;;;;;;11.67;10.33;;;;;;;;;;6332646;27;20187;-49
2023/06/06 05:11:56;;;;;;;12.57;10.23;;;;;;;;;;6327663;27;20219;-52
2023/06/06 05:14:57;;;;;;;14.23;11.53;;;;;;;;;;6342825;27;20195;-53
2023/06/06 05:17:58;;;;;;;12.47;10.13;;;;;;;;;;6335882;27;20195;-48
2023/06/06 05:21:02;;;;;;;14.97;11.50;;;;;;;;;;6347874;27;20275;-50
2023/06/06 05:24:03;;;;;;;15.77;11.43;;;;;;;;;;6341912;27;20230;-50
2023/06/06 05:27:05;;;;;;;11.07;9.87;;;;;;;;;;6354516;27;20198;-51
2023/06/06 05:30:06;;;;;;;10.97;9.17;;;;;;;;;;6322159;27;20237;-52
2023/06/06 05:33:08;;;;;;;11.47;10.33;;;;;;;;;;6324093;27;20290;-53
2023/06/06 05:36:10;;;;;;;11.70;10.60;;;;;;;;;;6342109;27;20191;-53
2023/06/06 05:39:11;;;;;;;11.07;9.97;;;;;;;;;;6346536;27;20214;-53
2023/06/06 05:42:12;;;;;;;10.30;9.30;;;;;;;;;;6320891;28;20215;-51
2023/06/06 05:45:13;;;;;;;11.50;10.37;;;;;;;;;;6340390;27;20186;-52
2023/06/06 05:48:14;;;;;;;16.13;11.53;;;;;;;;;;6340789;27;20190;-51
2023/06/06 05:51:15;;;;;;;11.17;9.90;;;;;;;;;;6334546;27;20190;-52
2023/06/06 05:54:17;;;;;;;10.73;9.73;;;;;;;;;;6350581;27;20178;-53
2023/06/06 05:57:20;;;;;;;10.07;9.07;;;;;;;;;;6351739;27;20230;-50
2023/06/06 06:00:21;;;;;;;9.83;8.93;;;;;;;;;;6340873;27;20203;-52
2023/06/06 06:03:22;;;;;;;9.87;8.97;;;;;;;;;;6326592;28;20330;-53
2023/06/06 06:06:23;;;;;;;14.80;10.73;;;;;;;;;;6327396;27;20191;-54
2023/06/06 06:09:24;;;;;;;9.70;8.77;;;;;;;;;;6331440;27;20184;-53
2023/06/06 06:12:25;;;;;;;9.43;8.53;;;;;;;;;;6329069;28;20193;-53
2023/06/06 06:15:26;;;;;;;11.33;10.17;;;;;;;;;;6339835;27;20293;-52
2023/06/06 06:18:27;;;;;;;10.10;9.13;;;;;;;;;;6352730;27;20195;-51
2023/06/06 06:21:28;;;;;;;10.27;9.27;;;;;;;;;;6326772;28;20211;-51
2023/06/06 06:24:30;;;;;;;12.87;10.57;;;;;;;;;;6322814;27;20215;-54
2023/06/06 06:27:31;;;;;;;11.47;10.30;;;;;;;;;;6339326;27;20186;-55
2023/06/06 06:30:32;;;;;;;11.33;10.33;;;;;;;;;;6359531;27;20230;-54
2023/06/06 06:33:34;;;;;;;10.67;9.67;;;;;;;;;;6328580;27;20188;-54
2023/06/06 06:36:35;;;;;;;9.70;8.70;;;;;;;;;;6338780;27;20195;-53
2023/06/06 06:39:36;;;;;;;8.53;7.80;;;;;;;;;;6316432;27;20191;-50
2023/06/06 06:42:41;;;;;;;10.97;9.63;;;;;;;;;;6327097;28;20242;-51
2023/06/06 06:45:42;;;;;;;9.17;8.37;;;;;;;;;;6337775;27;20191;-54
2023/06/06 06:48:45;;;;;;;8.80;8.00;;;;;;;;;;6326325;28;20184;-52
2023/06/06 06:51:47;;;;;;;8.47;7.70;;;;;;;;;;6335723;27;20194;-53
2023/06/06 06:54:53;;;;;;;8.53;7.73;;;;;;;;;;6316269;28;20210;-54
2023/06/06 06:57:54;;;;;;;8.37;7.67;;;;;;;;;;6338636;27;20199;-50
2023/06/06 07:00:56;;;;;;;8.20;7.40;;;;;;;;;;6337738;27;20210;-49
2023/06/06 07:03:57;;;;;;;9.40;8.60;;;;;;;;;;6331487;27;20229;-53
2023/06/06 07:06:58;;;;;;;8.93;8.17;;;;;;;;;;6330406;27;20188;-54
2023/06/06 07:09:59;;;;;;;9.40;8.60;;;;;;;;;;6337966;28;20192;-52
2023/06/06 07:13:00;;;;;;;9.13;8.33;;;;;;;;;;6330061;27;20196;-52
2023/06/06 07:16:01;;;;;;;9.80;6.83;;;;;;;;;;6342683;27;20198;-53
2023/06/06 07:19:02;;;;;;;7.83;7.03;;;;;;;;;;6342756;27;20244;-49
2023/06/06 07:22:04;;;;;;;7.30;6.60;;;;;;;;;;6333273;27;20194;-52
2023/06/06 07:25:05;;;;;;;7.97;7.07;;;;;;;;;;6331917;27;20211;-55
2023/06/06 07:28:06;;;;;;;7.80;6.47;;;;;;;;;;6347844;27;20194;-52
2023/06/06 07:31:07;;;;;;;6.97;6.23;;;;;;;;;;6326974;28;20254;-52
2023/06/06 07:34:09;;;;;;;7.30;6.60;;;;;;;;;;6318270;27;20534;-53
2023/06/06 07:37:10;;;;;;;7.00;6.27;;;;;;;;;;6330478;27;20195;-54
2023/06/06 07:40:12;;;;;;;6.20;5.63;;;;;;;;;;6348700;27;20234;-54
2023/06/06 07:43:13;;;;;;;5.80;5.30;;;;;;;;;;6339204;27;20217;-52
2023/06/06 07:46:14;;;;;;;7.37;6.67;;;;;;;;;;6313171;28;20243;-53
2023/06/06 07:49:15;;;;;;;6.70;6.17;;;;;;;;;;6321248;27;20238;-54
2023/06/06 07:52:17;;;;;;;6.00;5.47;;;;;;;;;;6311904;28;20195;-53
2023/06/06 07:55:18;;;;;;;5.80;5.30;;;;;;;;;;6338012;27;20184;-53
2023/06/06 07:58:25;;;;;;;5.67;5.17;;;;;;;;;;6333663;27;20192;-51
2023/06/06 08:01:27;;;;;;;6.00;5.40;;;;;;;;;;6336241;27;20192;-53
2023/06/06 08:04:28;;;;;;;5.27;4.87;;;;;;;;;;6325046;28;20215;-52
2023/06/06 08:07:29;;;;;;;6.50;5.37;;;;;;;;;;6318564;28;20183;-52
2023/06/06 08:10:30;;;;;;;6.30;5.80;;;;;;;;;;6311376;28;20186;-52
2023/06/06 08:13:31;;;;;;;5.90;5.40;;;;;;;;;;6326537;28;20210;-54
2023/06/06 08:16:32;;;;;;;6.07;5.57;;;;;;;;;;6336307;28;20256;-51
2023/06/06 08:19:33;;;;;;;6.57;5.97;;;;;;;;;;6317750;28;20187;-54
2023/06/06 08:22:34;;;;;;;6.10;5.50;;;;;;;;;;6335406;27;20180;-53
2023/06/06 08:25:42;;;;;;;7.13;6.43;;;;;;;;;;6326720;27;20187;-52
2023/06/06 08:28:44;;;;;;;6.73;5.83;;;;;;;;;;6349228;27;20180;-52
2023/06/06 08:31:45;;;;;;;6.50;5.90;;;;;;;;;;6330316;27;20257;-52
2023/06/06 08:34:46;;;;;;;5.60;5.10;;;;;;;;;;6328847;27;20199;-54
2023/06/06 08:37:47;;;;;;;7.40;5.10;;;;;;;;;;6330518;27;20225;-50
2023/06/06 08:40:52;;;;;;;6.40;5.80;;;;;;;;;;6327102;27;20195;-54
2023/06/06 08:43:54;;;;;;;5.80;5.30;;;;;;;;;;6341472;27;20216;-54
2023/06/06 08:46:57;;;;;;;6.20;5.70;;;;;;;;;;6356152;27;20237;-53
2023/06/06 08:50:00;;;;;;;5.67;5.17;;;;;;;;;;6333977;27;20208;-54
2023/06/06 08:53:04;;;;;;;5.33;4.93;;;;;;;;;;6341746;27;20187;-55
2023/06/06 08:56:08;;;;;;;5.80;5.30;;;;;;;;;;6325113;27;20180;-52
2023/06/06 08:59:10;;;;;;;5.57;4.97;;;;;;;;;;6336278;27;20183;-53
2023/06/06 09:02:11;;;;;;;7.87;5.83;;;;;;;;;;6327579;27;20648;-53
2023/06/06 09:05:12;;;;;;;5.47;5.07;;;;;;;;;;6316237;28;20211;-52
2023/06/06 09:08:13;;;;;;;5.30;4.90;;;;;;;;;;6350637;27;20188;-51
2023/06/06 09:11:16;;;;;;;5.40;4.90;;;;;;;;;;6316872;27;20199;-53
2023/06/06 09:14:17;;;;;;;6.27;5.67;;;;;;;;;;6329712;27;20190;-53
2023/06/06 09:17:18;;;;;;;5.23;4.60;;;;;;;;;;6351662;27;20198;-52
2023/06/06 09:20:19;;;;;;;5.53;4.47;;;;;;;;;;6356088;27;20179;-54
2023/06/06 09:23:20;;;;;;;7.23;4.17;;;;;;;;;;6347319;27;20211;-54
2023/06/06 09:26:22;;;;;;;5.53;5.10;;;;;;;;;;6341563;27;20208;-54
2023/06/06 09:29:25;;;;;;;4.93;4.53;;;;;;;;;;6356514;27;20221;-53
2023/06/06 09:32:27;;;;;;;6.20;5.70;;;;;;;;;;6345530;27;20195;-54
2023/06/06 09:35:32;;;;;;;6.13;5.63;;;;;;;;;;6335527;27;20179;-53
2023/06/06 09:38:33;;;;;;;6.30;5.77;;;;;;;;;;6333690;27;20207;-52
2023/06/06 09:41:47;;;;;;;6.87;6.30;;;;;;;;;;6329504;28;20276;-54
2023/06/06 09:44:48;;;;;;;6.67;6.07;;;;;;;;;;6346418;27;20306;-52
2023/06/06 09:47:50;;;;;;;6.93;6.20;;;;;;;;;;6336943;27;20253;-51
2023/06/06 09:50:51;;;;;;;7.87;7.17;;;;;;;;;;6345561;27;20187;-52
2023/06/06 09:53:53;;;;;;;6.47;5.87;;;;;;;;;;6334559;27;20195;-54
2023/06/06 09:56:55;;;;;;;6.70;6.07;;;;;;;;;;6357287;27;20223;-55
2023/06/06 09:59:58;;;;;;;8.43;6.80;;;;;;;;;;6348675;27;20188;-54
2023/06/06 10:02:59;;;;;;;7.20;6.33;;;;;;;;;;6349045;27;20233;-53
2023/06/06 10:06:05;;;;;;;6.90;6.30;;;;;;;;;;6366662;27;20180;-54
2023/06/06 10:09:06;;;;;;;6.87;6.27;;;;;;;;;;6342776;27;20191;-54
2023/06/06 10:12:09;;;;;;;5.97;5.47;;;;;;;;;;6355199;27;20240;-51
2023/06/06 10:15:13;;;;;;;6.47;5.53;;;;;;;;;;6342264;27;20186;-53
2023/06/06 10:18:16;;;;;;;5.90;5.10;;;;;;;;;;6340265;27;20187;-55
2023/06/06 10:21:17;;;;;;;6.07;5.57;;;;;;;;;;6349518;27;20190;-54
2023/06/06 10:24:18;;;;;;;5.70;5.20;;;;;;;;;;6357543;27;20211;-53
2023/06/06 10:27:22;;;;;;;6.93;5.23;;;;;;;;;;6337546;27;20190;-54
2023/06/06 10:30:32;;;;;;;6.63;6.03;;;;;;;;;;6340937;27;20238;-54
2023/06/06 10:33:52;;;;;;;5.27;4.83;;;;;;;;;;6353139;27;20218;-55
2023/06/06 10:36:54;;;;;;;5.93;5.33;;;;;;;;;;6339200;27;20191;-51
2023/06/06 10:40:04;;;;;;;5.60;5.10;;;;;;;;;;6321259;27;20196;-53
2023/06/06 10:43:06;;;;;;;5.93;5.13;;;;;;;;;;6343630;27;20212;-54
2023/06/06 10:46:07;;;;;;;5.53;5.03;;;;;;;;;;6324606;27;20202;-55
2023/06/06 10:49:09;;;;;;;6.13;5.57;;;;;;;;;;6335075;27;20427;-54
2023/06/06 10:52:13;;;;;;;5.03;4.63;;;;;;;;;;6318302;27;20183;-52
2023/06/06 10:55:21;;;;;;;4.87;4.43;;;;;;;;;;6332851;27;20199;-54
2023/06/06 10:58:24;;;;;;;7.10;4.80;;;;;;;;;;6332438;27;20276;-53
2023/06/06 11:01:26;;;;;;;4.80;4.40;;;;;;;;;;6322226;27;20176;-54
2023/06/06 11:04:29;;;;;;;4.67;4.37;;;;;;;;;;6317844;27;20207;-52
2023/06/06 11:07:31;;;;;;;6.43;4.87;;;;;;;;;;6332680;27;20183;-54
2023/06/06 11:10:48;;;;;;;4.87;4.47;;;;;;;;;;6331844;27;20246;-54
2023/06/06 11:13:53;;;;;;;5.07;4.57;;;;;;;;;;6314825;27;20734;-53
2023/06/06 11:17:00;;;;;;;4.77;4.30;;;;;;;;;;6306600;27;20192;-54
2023/06/06 11:20:03;;;;;;;4.83;4.30;;;;;;;;;;6340737;27;20589;-54
2023/06/06 11:23:05;;;;;;;4.53;3.60;;;;;;;;;;6318131;27;20219;-54
2023/06/06 11:26:09;;;;;;;5.23;3.57;;;;;;;;;;6316909;27;20254;-54
2023/06/06 11:29:11;;;;;;;4.23;3.67;;;;;;;;;;6335305;27;20185;-55
2023/06/06 11:32:13;;;;;;;3.80;3.50;;;;;;;;;;6321212;27;20191;-54
2023/06/06 11:35:17;;;;;;;4.27;3.83;;;;;;;;;;6324293;27;20187;-54
2023/06/06 11:38:18;;;;;;;4.20;3.47;;;;;;;;;;6335509;27;20175;-55
2023/06/06 11:41:20;;;;;;;3.93;3.63;;;;;;;;;;6323855;28;20195;-53
2023/06/06 11:44:21;;;;;;;4.27;3.90;;;;;;;;;;6320514;27;20214;-54
2023/06/06 11:47:31;;;;;;;4.40;3.50;;;;;;;;;;6321793;27;20176;-51
2023/06/06 11:50:32;;;;;;;4.13;3.63;;;;;;;;;;6317614;27;20176;-53
2023/06/06 11:53:33;;;;;;;4.13;3.73;;;;;;;;;;6315759;27;20180;-51
2023/06/06 11:56:34;;;;;;;4.33;3.93;;;;;;;;;;6320322;27;20191;-51
2023/06/06 11:59:35;;;;;;;4.97;3.83;;;;;;;;;;6336866;27;20186;-55
2023/06/06 12:02:37;;;;;;;3.70;3.40;;;;;;;;;;6315286;28;20187;-52
2023/06/06 12:05:38;;;;;;;5.67;3.20;;;;;;;;;;6306433;28;20219;-53
2023/06/06 12:08:39;;;;;;;6.27;3.57;;;;;;;;;;6316476;28;20620;-54
2023/06/06 12:12:00;;;;;;;3.10;2.80;;;;;;;;;;6314195;28;20209;-54
2023/06/06 12:15:01;;;;;;;3.57;3.27;;;;;;;;;;6307117;27;20204;-53
2023/06/06 12:18:02;;;;;;;3.40;2.87;;;;;;;;;;6315570;28;20267;-52
2023/06/06 12:21:06;;;;;;;3.73;2.67;;;;;;;;;;6310550;28;20195;-50
2023/06/06 12:24:20;;;;;;;5.30;3.50;;;;;;;;;;6333410;27;20248;-53
2023/06/06 12:27:27;;;;;;;4.17;3.30;;;;;;;;;;6334765;27;20205;-52
2023/06/06 12:30:32;;;;;;;2.93;2.73;;;;;;;;;;6338171;28;20215;-53
2023/06/06 12:33:46;;;;;;;2.90;2.70;;;;;;;;;;6322751;28;20250;-55
2023/06/06 12:36:51;;;;;;;2.97;1.80;;;;;;;;;;6326776;27;20246;-54
